sensor_id;sensor_type;location;lat;lon;timestamp;P1;durP1;ratioP1;P2;durP2;ratioP2
50585;SDS011;36542;51.700;8.846;2022-12-18T00:00:41;8.40;;;5.67;;
50585;SDS011;36542;51.700;8.846;2022-12-18T00:03:07;12.43;;;6.00;;
50585;SDS011;36542;51.700;8.846;2022-12-18T00:05:33;12.13;;;5.63;;
50585;SDS011;36542;51.700;8.846;2022-12-18T00:07:58;12.63;;;6.10;;
50585;SDS011;36542;51.700;8.846;2022-12-18T00:10:24;9.10;;;6.30;;
50585;SDS011;36542;51.700;8.846;2022-12-18T00:12:49;9.33;;;5.90;;
50585;SDS011;36542;51.700;8.846;2022-12-18T00:15:15;11.23;;;6.30;;
50585;SDS011;36542;51.700;8.846;2022-12-18T00:17:40;11.57;;;5.90;;
50585;SDS011;36542;51.700;8.846;2022-12-18T00:20:06;10.33;;;5.93;;
50585;SDS011;36542;51.700;8.846;2022-12-18T00:22:32;11.33;;;5.73;;
50585;SDS011;36542;51.700;8.846;2022-12-18T00:24:58;12.47;;;6.47;;
50585;SDS011;36542;51.700;8.846;2022-12-18T00:27:23;10.13;;;5.60;;
50585;SDS011;36542;51.700;8.846;2022-12-18T00:29:49;10.03;;;6.20;;
50585;SDS011;36542;51.700;8.846;2022-12-18T00:32:15;8.03;;;5.17;;
50585;SDS011;36542;51.700;8.846;2022-12-18T00:34:41;9.40;;;5.43;;
50585;SDS011;36542;51.700;8.846;2022-12-18T00:37:06;11.33;;;5.60;;
50585;SDS011;36542;51.700;8.846;2022-12-18T00:39:32;7.80;;;5.13;;
50585;SDS011;36542;51.700;8.846;2022-12-18T00:41:57;9.77;;;5.43;;
50585;SDS011;36542;51.700;8.846;2022-12-18T00:44:42;11.10;;;5.27;;
50585;SDS011;36542;51.700;8.846;2022-12-18T00:47:07;9.13;;;5.20;;
50585;SDS011;36542;51.700;8.846;2022-12-18T00:49:33;9.93;;;5.53;;
50585;SDS011;36542;51.700;8.846;2022-12-18T00:51:58;11.63;;;5.23;;
50585;SDS011;36542;51.700;8.846;2022-12-18T00:54:24;8.53;;;5.57;;
50585;SDS011;36542;51.700;8.846;2022-12-18T00:56:49;10.70;;;5.73;;
50585;SDS011;36542;51.700;8.846;2022-12-18T00:59:16;8.57;;;4.73;;
50585;SDS011;36542;51.700;8.846;2022-12-18T01:01:42;11.73;;;5.30;;
50585;SDS011;36542;51.700;8.846;2022-12-18T01:04:08;9.27;;;5.30;;
50585;SDS011;36542;51.700;8.846;2022-12-18T01:06:33;11.00;;;5.33;;
50585;SDS011;36542;51.700;8.846;2022-12-18T01:08:59;9.40;;;5.00;;
50585;SDS011;36542;51.700;8.846;2022-12-18T01:11:24;10.13;;;5.13;;
50585;SDS011;36542;51.700;8.846;2022-12-18T01:13:51;8.77;;;5.20;;
50585;SDS011;36542;51.700;8.846;2022-12-18T01:16:18;11.63;;;5.80;;
50585;SDS011;36542;51.700;8.846;2022-12-18T01:18:44;8.47;;;5.00;;
50585;SDS011;36542;51.700;8.846;2022-12-18T01:21:11;10.37;;;6.00;;
50585;SDS011;36542;51.700;8.846;2022-12-18T01:23:38;9.03;;;5.13;;
50585;SDS011;36542;51.700;8.846;2022-12-18T01:26:07;12.03;;;5.90;;
50585;SDS011;36542;51.700;8.846;2022-12-18T01:28:35;9.03;;;5.57;;
50585;SDS011;36542;51.700;8.846;2022-12-18T01:33:44;9.13;;;4.93;;
50585;SDS011;36542;51.700;8.846;2022-12-18T01:36:20;9.00;;;5.17;;
50585;SDS011;36542;51.700;8.846;2022-12-18T01:38:50;12.03;;;5.57;;
50585;SDS011;36542;51.700;8.846;2022-12-18T01:41:16;9.87;;;5.83;;
50585;SDS011;36542;51.700;8.846;2022-12-18T01:43:55;10.03;;;5.10;;
50585;SDS011;36542;51.700;8.846;2022-12-18T01:46:22;8.17;;;5.37;;
50585;SDS011;36542;51.700;8.846;2022-12-18T01:48:50;8.67;;;4.87;;
50585;SDS011;36542;51.700;8.846;2022-12-18T01:51:18;9.80;;;5.23;;
50585;SDS011;36542;51.700;8.846;2022-12-18T01:53:44;9.97;;;5.70;;
50585;SDS011;36542;51.700;8.846;2022-12-18T01:56:17;9.33;;;5.20;;
50585;SDS011;36542;51.700;8.846;2022-12-18T02:01:17;18.07;;;8.97;;
50585;SDS011;36542;51.700;8.846;2022-12-18T02:03:44;16.53;;;8.07;;
50585;SDS011;36542;51.700;8.846;2022-12-18T02:16:19;10.10;;;4.73;;
50585;SDS011;36542;51.700;8.846;2022-12-18T02:18:51;12.47;;;5.07;;
50585;SDS011;36542;51.700;8.846;2022-12-18T02:27:15;8.70;;;4.83;;
50585;SDS011;36542;51.700;8.846;2022-12-18T02:29:51;8.30;;;5.17;;
50585;SDS011;36542;51.700;8.846;2022-12-18T02:32:22;10.93;;;5.23;;
50585;SDS011;36542;51.700;8.846;2022-12-18T02:34:52;11.67;;;6.17;;
50585;SDS011;36542;51.700;8.846;2022-12-18T02:37:21;9.03;;;5.50;;
50585;SDS011;36542;51.700;8.846;2022-12-18T02:39:48;12.27;;;5.97;;
50585;SDS011;36542;51.700;8.846;2022-12-18T02:42:17;12.37;;;6.30;;
50585;SDS011;36542;51.700;8.846;2022-12-18T02:44:47;14.40;;;6.50;;
50585;SDS011;36542;51.700;8.846;2022-12-18T02:47:16;11.17;;;6.50;;
50585;SDS011;36542;51.700;8.846;2022-12-18T02:55:19;8.80;;;6.07;;
50585;SDS011;36542;51.700;8.846;2022-12-18T03:00:57;10.37;;;6.30;;
50585;SDS011;36542;51.700;8.846;2022-12-18T03:03:42;13.37;;;6.83;;
50585;SDS011;36542;51.700;8.846;2022-12-18T03:06:18;11.80;;;5.77;;
50585;SDS011;36542;51.700;8.846;2022-12-18T03:08:51;13.73;;;6.67;;
50585;SDS011;36542;51.700;8.846;2022-12-18T03:11:21;11.47;;;6.80;;
50585;SDS011;36542;51.700;8.846;2022-12-18T03:14:08;11.63;;;5.37;;
50585;SDS011;36542;51.700;8.846;2022-12-18T03:16:36;13.53;;;7.90;;
50585;SDS011;36542;51.700;8.846;2022-12-18T03:19:09;17.40;;;8.50;;
50585;SDS011;36542;51.700;8.846;2022-12-18T03:21:42;12.40;;;7.23;;
50585;SDS011;36542;51.700;8.846;2022-12-18T03:24:10;15.23;;;7.20;;
50585;SDS011;36542;51.700;8.846;2022-12-18T03:26:37;17.67;;;8.07;;
50585;SDS011;36542;51.700;8.846;2022-12-18T03:29:11;13.83;;;8.03;;
50585;SDS011;36542;51.700;8.846;2022-12-18T03:31:40;13.60;;;7.23;;
50585;SDS011;36542;51.700;8.846;2022-12-18T03:34:14;14.70;;;7.70;;
50585;SDS011;36542;51.700;8.846;2022-12-18T03:36:44;13.93;;;6.97;;
50585;SDS011;36542;51.700;8.846;2022-12-18T03:39:10;12.30;;;7.13;;
50585;SDS011;36542;51.700;8.846;2022-12-18T03:52:50;18.43;;;8.40;;
50585;SDS011;36542;51.700;8.846;2022-12-18T03:55:21;16.47;;;8.17;;
50585;SDS011;36542;51.700;8.846;2022-12-18T03:57:49;15.10;;;7.33;;
50585;SDS011;36542;51.700;8.846;2022-12-18T04:00:17;15.10;;;7.87;;
50585;SDS011;36542;51.700;8.846;2022-12-18T04:02:45;17.67;;;7.87;;
50585;SDS011;36542;51.700;8.846;2022-12-18T04:05:16;16.30;;;8.20;;
50585;SDS011;36542;51.700;8.846;2022-12-18T04:07:45;13.77;;;7.27;;
50585;SDS011;36542;51.700;8.846;2022-12-18T04:10:12;16.37;;;8.03;;
50585;SDS011;36542;51.700;8.846;2022-12-18T04:12:41;13.00;;;7.43;;
50585;SDS011;36542;51.700;8.846;2022-12-18T04:15:07;11.57;;;6.43;;
50585;SDS011;36542;51.700;8.846;2022-12-18T04:17:33;11.80;;;7.07;;
50585;SDS011;36542;51.700;8.846;2022-12-18T04:19:59;13.77;;;8.47;;
50585;SDS011;36542;51.700;8.846;2022-12-18T04:22:25;14.43;;;8.50;;
50585;SDS011;36542;51.700;8.846;2022-12-18T04:24:50;15.70;;;8.77;;
50585;SDS011;36542;51.700;8.846;2022-12-18T04:27:16;15.60;;;9.13;;
50585;SDS011;36542;51.700;8.846;2022-12-18T04:29:41;14.27;;;8.70;;
50585;SDS011;36542;51.700;8.846;2022-12-18T04:32:07;14.27;;;7.83;;
50585;SDS011;36542;51.700;8.846;2022-12-18T04:34:33;15.10;;;9.50;;
50585;SDS011;36542;51.700;8.846;2022-12-18T04:36:58;17.83;;;9.07;;
50585;SDS011;36542;51.700;8.846;2022-12-18T04:39:24;16.43;;;8.43;;
50585;SDS011;36542;51.700;8.846;2022-12-18T04:41:49;16.90;;;9.50;;
50585;SDS011;36542;51.700;8.846;2022-12-18T04:44:15;13.67;;;8.57;;
50585;SDS011;36542;51.700;8.846;2022-12-18T04:46:40;14.87;;;8.97;;
50585;SDS011;36542;51.700;8.846;2022-12-18T04:49:06;17.17;;;9.50;;
50585;SDS011;36542;51.700;8.846;2022-12-18T04:51:32;14.03;;;8.17;;
50585;SDS011;36542;51.700;8.846;2022-12-18T04:53:57;13.87;;;8.47;;
50585;SDS011;36542;51.700;8.846;2022-12-18T04:56:23;16.67;;;8.37;;
50585;SDS011;36542;51.700;8.846;2022-12-18T04:58:48;20.17;;;8.57;;
50585;SDS011;36542;51.700;8.846;2022-12-18T05:01:15;15.20;;;8.23;;
50585;SDS011;36542;51.700;8.846;2022-12-18T05:03:41;13.33;;;7.03;;
50585;SDS011;36542;51.700;8.846;2022-12-18T05:06:07;14.53;;;7.20;;
50585;SDS011;36542;51.700;8.846;2022-12-18T05:08:33;14.87;;;8.03;;
50585;SDS011;36542;51.700;8.846;2022-12-18T05:11:02;14.33;;;7.80;;
50585;SDS011;36542;51.700;8.846;2022-12-18T05:13:30;13.10;;;7.83;;
50585;SDS011;36542;51.700;8.846;2022-12-18T05:15:56;17.93;;;7.70;;
50585;SDS011;36542;51.700;8.846;2022-12-18T05:18:22;12.37;;;7.90;;
50585;SDS011;36542;51.700;8.846;2022-12-18T05:20:49;13.97;;;7.87;;
50585;SDS011;36542;51.700;8.846;2022-12-18T05:23:16;13.93;;;7.47;;
50585;SDS011;36542;51.700;8.846;2022-12-18T05:25:41;14.17;;;7.83;;
50585;SDS011;36542;51.700;8.846;2022-12-18T05:28:07;14.17;;;7.27;;
50585;SDS011;36542;51.700;8.846;2022-12-18T05:30:32;12.53;;;7.07;;
50585;SDS011;36542;51.700;8.846;2022-12-18T05:32:58;12.90;;;6.73;;
50585;SDS011;36542;51.700;8.846;2022-12-18T05:35:24;12.97;;;6.50;;
50585;SDS011;36542;51.700;8.846;2022-12-18T05:37:49;10.43;;;6.07;;
50585;SDS011;36542;51.700;8.846;2022-12-18T05:40:15;11.87;;;6.50;;
50585;SDS011;36542;51.700;8.846;2022-12-18T05:42:40;12.70;;;7.33;;
50585;SDS011;36542;51.700;8.846;2022-12-18T05:45:06;11.67;;;6.67;;
50585;SDS011;36542;51.700;8.846;2022-12-18T05:47:32;11.03;;;6.80;;
50585;SDS011;36542;51.700;8.846;2022-12-18T05:49:57;11.37;;;6.63;;
50585;SDS011;36542;51.700;8.846;2022-12-18T05:52:23;10.83;;;6.23;;
50585;SDS011;36542;51.700;8.846;2022-12-18T05:54:49;9.57;;;6.27;;
50585;SDS011;36542;51.700;8.846;2022-12-18T05:57:14;11.70;;;6.67;;
50585;SDS011;36542;51.700;8.846;2022-12-18T05:59:40;12.27;;;6.20;;
50585;SDS011;36542;51.700;8.846;2022-12-18T06:02:05;12.23;;;7.57;;
50585;SDS011;36542;51.700;8.846;2022-12-18T06:04:31;10.83;;;5.77;;
50585;SDS011;36542;51.700;8.846;2022-12-18T06:06:57;10.73;;;6.20;;
50585;SDS011;36542;51.700;8.846;2022-12-18T06:09:23;9.50;;;6.00;;
50585;SDS011;36542;51.700;8.846;2022-12-18T06:11:49;8.23;;;5.33;;
50585;SDS011;36542;51.700;8.846;2022-12-18T06:14:16;10.30;;;6.60;;
50585;SDS011;36542;51.700;8.846;2022-12-18T06:16:42;11.77;;;6.73;;
50585;SDS011;36542;51.700;8.846;2022-12-18T06:19:12;14.00;;;6.70;;
50585;SDS011;36542;51.700;8.846;2022-12-18T06:21:40;13.33;;;8.10;;
50585;SDS011;36542;51.700;8.846;2022-12-18T06:24:05;13.27;;;6.67;;
50585;SDS011;36542;51.700;8.846;2022-12-18T06:26:31;10.73;;;5.70;;
50585;SDS011;36542;51.700;8.846;2022-12-18T06:28:56;9.93;;;6.13;;
50585;SDS011;36542;51.700;8.846;2022-12-18T06:31:22;14.03;;;6.93;;
50585;SDS011;36542;51.700;8.846;2022-12-18T06:33:48;12.87;;;7.37;;
50585;SDS011;36542;51.700;8.846;2022-12-18T06:36:13;12.40;;;7.13;;
50585;SDS011;36542;51.700;8.846;2022-12-18T06:38:40;12.83;;;5.67;;
50585;SDS011;36542;51.700;8.846;2022-12-18T06:41:07;10.73;;;5.53;;
50585;SDS011;36542;51.700;8.846;2022-12-18T06:43:37;12.70;;;7.50;;
50585;SDS011;36542;51.700;8.846;2022-12-18T06:46:03;15.57;;;8.13;;
50585;SDS011;36542;51.700;8.846;2022-12-18T06:48:30;11.13;;;6.60;;
50585;SDS011;36542;51.700;8.846;2022-12-18T06:50:56;11.03;;;6.63;;
50585;SDS011;36542;51.700;8.846;2022-12-18T06:53:22;11.60;;;5.83;;
50585;SDS011;36542;51.700;8.846;2022-12-18T06:55:48;13.77;;;7.33;;
50585;SDS011;36542;51.700;8.846;2022-12-18T06:58:13;14.97;;;7.83;;
50585;SDS011;36542;51.700;8.846;2022-12-18T07:00:39;16.87;;;7.97;;
50585;SDS011;36542;51.700;8.846;2022-12-18T07:03:04;12.77;;;7.00;;
50585;SDS011;36542;51.700;8.846;2022-12-18T07:05:30;17.67;;;8.00;;
50585;SDS011;36542;51.700;8.846;2022-12-18T07:07:55;12.27;;;6.90;;
50585;SDS011;36542;51.700;8.846;2022-12-18T07:10:21;12.20;;;6.73;;
50585;SDS011;36542;51.700;8.846;2022-12-18T07:12:46;14.57;;;8.13;;
50585;SDS011;36542;51.700;8.846;2022-12-18T07:15:12;15.10;;;7.73;;
50585;SDS011;36542;51.700;8.846;2022-12-18T07:17:38;14.23;;;7.10;;
50585;SDS011;36542;51.700;8.846;2022-12-18T07:20:03;19.70;;;9.30;;
50585;SDS011;36542;51.700;8.846;2022-12-18T07:22:29;11.97;;;7.50;;
50585;SDS011;36542;51.700;8.846;2022-12-18T07:24:55;15.60;;;8.50;;
50585;SDS011;36542;51.700;8.846;2022-12-18T07:27:20;15.67;;;8.07;;
50585;SDS011;36542;51.700;8.846;2022-12-18T07:29:46;13.77;;;8.03;;
50585;SDS011;36542;51.700;8.846;2022-12-18T07:32:12;9.07;;;5.73;;
50585;SDS011;36542;51.700;8.846;2022-12-18T07:34:37;13.53;;;4.93;;
50585;SDS011;36542;51.700;8.846;2022-12-18T07:37:03;14.13;;;8.07;;
50585;SDS011;36542;51.700;8.846;2022-12-18T07:39:28;16.87;;;9.00;;
50585;SDS011;36542;51.700;8.846;2022-12-18T07:41:54;9.27;;;4.90;;
50585;SDS011;36542;51.700;8.846;2022-12-18T07:44:38;18.10;;;9.57;;
50585;SDS011;36542;51.700;8.846;2022-12-18T07:47:04;20.97;;;8.37;;
50585;SDS011;36542;51.700;8.846;2022-12-18T07:49:29;19.20;;;9.87;;
50585;SDS011;36542;51.700;8.846;2022-12-18T07:51:55;18.97;;;9.80;;
50585;SDS011;36542;51.700;8.846;2022-12-18T07:54:22;15.97;;;8.93;;
50585;SDS011;36542;51.700;8.846;2022-12-18T07:56:48;13.97;;;7.90;;
50585;SDS011;36542;51.700;8.846;2022-12-18T07:59:13;23.93;;;12.07;;
50585;SDS011;36542;51.700;8.846;2022-12-18T08:01:39;18.73;;;10.37;;
50585;SDS011;36542;51.700;8.846;2022-12-18T08:04:04;15.10;;;8.70;;
50585;SDS011;36542;51.700;8.846;2022-12-18T08:06:30;14.10;;;8.87;;
50585;SDS011;36542;51.700;8.846;2022-12-18T08:08:55;14.07;;;8.00;;
50585;SDS011;36542;51.700;8.846;2022-12-18T08:11:21;12.27;;;8.10;;
50585;SDS011;36542;51.700;8.846;2022-12-18T08:13:48;14.07;;;8.73;;
50585;SDS011;36542;51.700;8.846;2022-12-18T08:16:14;11.80;;;7.23;;
50585;SDS011;36542;51.700;8.846;2022-12-18T08:18:40;13.67;;;7.83;;
50585;SDS011;36542;51.700;8.846;2022-12-18T08:21:13;10.13;;;7.87;;
50585;SDS011;36542;51.700;8.846;2022-12-18T08:23:40;10.13;;;6.33;;
50585;SDS011;36542;51.700;8.846;2022-12-18T08:26:06;12.73;;;6.50;;
50585;SDS011;36542;51.700;8.846;2022-12-18T08:28:32;12.70;;;6.27;;
50585;SDS011;36542;51.700;8.846;2022-12-18T08:30:58;11.03;;;6.47;;
50585;SDS011;36542;51.700;8.846;2022-12-18T08:33:23;9.87;;;6.57;;
50585;SDS011;36542;51.700;8.846;2022-12-18T08:35:49;11.87;;;6.57;;
50585;SDS011;36542;51.700;8.846;2022-12-18T08:38:14;10.37;;;6.37;;
50585;SDS011;36542;51.700;8.846;2022-12-18T08:40:40;10.23;;;5.87;;
50585;SDS011;36542;51.700;8.846;2022-12-18T08:43:05;14.60;;;8.20;;
50585;SDS011;36542;51.700;8.846;2022-12-18T08:45:51;10.60;;;7.10;;
50585;SDS011;36542;51.700;8.846;2022-12-18T08:48:16;12.50;;;6.90;;
50585;SDS011;36542;51.700;8.846;2022-12-18T08:50:42;12.83;;;7.83;;
50585;SDS011;36542;51.700;8.846;2022-12-18T08:53:07;12.67;;;7.17;;
50585;SDS011;36542;51.700;8.846;2022-12-18T08:55:34;11.23;;;7.53;;
50585;SDS011;36542;51.700;8.846;2022-12-18T08:57:59;20.17;;;11.33;;
50585;SDS011;36542;51.700;8.846;2022-12-18T09:00:25;14.03;;;8.07;;
50585;SDS011;36542;51.700;8.846;2022-12-18T09:02:50;17.57;;;8.37;;
50585;SDS011;36542;51.700;8.846;2022-12-18T09:05:16;12.70;;;7.60;;
50585;SDS011;36542;51.700;8.846;2022-12-18T09:07:42;13.73;;;7.50;;
50585;SDS011;36542;51.700;8.846;2022-12-18T09:10:07;10.83;;;6.87;;
50585;SDS011;36542;51.700;8.846;2022-12-18T09:12:33;14.17;;;7.57;;
50585;SDS011;36542;51.700;8.846;2022-12-18T09:14:58;13.57;;;8.07;;
50585;SDS011;36542;51.700;8.846;2022-12-18T09:17:24;12.23;;;7.20;;
50585;SDS011;36542;51.700;8.846;2022-12-18T09:19:49;11.80;;;7.30;;
50585;SDS011;36542;51.700;8.846;2022-12-18T09:22:15;11.10;;;7.23;;
50585;SDS011;36542;51.700;8.846;2022-12-18T09:24:40;14.83;;;7.60;;
50585;SDS011;36542;51.700;8.846;2022-12-18T09:27:06;10.60;;;6.60;;
50585;SDS011;36542;51.700;8.846;2022-12-18T09:29:32;11.17;;;6.37;;
50585;SDS011;36542;51.700;8.846;2022-12-18T09:31:57;9.50;;;5.77;;
50585;SDS011;36542;51.700;8.846;2022-12-18T09:34:23;9.77;;;5.77;;
50585;SDS011;36542;51.700;8.846;2022-12-18T09:36:48;9.07;;;5.43;;
50585;SDS011;36542;51.700;8.846;2022-12-18T09:39:15;11.77;;;5.23;;
50585;SDS011;36542;51.700;8.846;2022-12-18T09:41:42;6.77;;;4.43;;
50585;SDS011;36542;51.700;8.846;2022-12-18T09:44:20;10.80;;;5.07;;
50585;SDS011;36542;51.700;8.846;2022-12-18T09:47:10;16.73;;;9.10;;
50585;SDS011;36542;51.700;8.846;2022-12-18T09:49:44;10.00;;;4.83;;
50585;SDS011;36542;51.700;8.846;2022-12-18T09:55:22;11.17;;;4.57;;
50585;SDS011;36542;51.700;8.846;2022-12-18T10:00:34;7.00;;;4.77;;
50585;SDS011;36542;51.700;8.846;2022-12-18T10:03:02;8.07;;;5.87;;
50585;SDS011;36542;51.700;8.846;2022-12-18T10:14:12;9.60;;;5.40;;
50585;SDS011;36542;51.700;8.846;2022-12-18T10:23:08;6.27;;;4.67;;
50585;SDS011;36542;51.700;8.846;2022-12-18T10:25:23;8.43;;;4.90;;
50585;SDS011;36542;51.700;8.846;2022-12-18T10:28:14;10.13;;;5.50;;
50585;SDS011;36542;51.700;8.846;2022-12-18T10:30:41;9.27;;;5.80;;
50585;SDS011;36542;51.700;8.846;2022-12-18T10:33:14;8.33;;;5.53;;
50585;SDS011;36542;51.700;8.846;2022-12-18T10:35:42;7.67;;;5.67;;
50585;SDS011;36542;51.700;8.846;2022-12-18T10:43:15;8.07;;;4.73;;
50585;SDS011;36542;51.700;8.846;2022-12-18T10:45:58;6.47;;;4.57;;
50585;SDS011;36542;51.700;8.846;2022-12-18T10:48:25;6.20;;;4.47;;
50585;SDS011;36542;51.700;8.846;2022-12-18T10:50:51;8.63;;;5.20;;
50585;SDS011;36542;51.700;8.846;2022-12-18T10:53:19;7.43;;;5.07;;
50585;SDS011;36542;51.700;8.846;2022-12-18T10:55:47;6.87;;;4.40;;
50585;SDS011;36542;51.700;8.846;2022-12-18T11:03:34;10.20;;;5.20;;
50585;SDS011;36542;51.700;8.846;2022-12-18T11:06:03;7.80;;;4.47;;
50585;SDS011;36542;51.700;8.846;2022-12-18T11:08:30;9.20;;;5.77;;
50585;SDS011;36542;51.700;8.846;2022-12-18T11:10:56;10.20;;;4.87;;
50585;SDS011;36542;51.700;8.846;2022-12-18T11:13:22;5.37;;;4.13;;
50585;SDS011;36542;51.700;8.846;2022-12-18T11:15:50;7.83;;;5.17;;
50585;SDS011;36542;51.700;8.846;2022-12-18T11:18:22;6.77;;;3.93;;
50585;SDS011;36542;51.700;8.846;2022-12-18T11:20:56;9.23;;;4.43;;
50585;SDS011;36542;51.700;8.846;2022-12-18T11:23:30;7.03;;;4.07;;
50585;SDS011;36542;51.700;8.846;2022-12-18T11:25:57;7.20;;;4.70;;
50585;SDS011;36542;51.700;8.846;2022-12-18T11:28:34;12.20;;;4.73;;
50585;SDS011;36542;51.700;8.846;2022-12-18T11:31:19;5.30;;;3.80;;
50585;SDS011;36542;51.700;8.846;2022-12-18T11:33:55;8.80;;;6.00;;
50585;SDS011;36542;51.700;8.846;2022-12-18T11:36:21;8.30;;;4.43;;
50585;SDS011;36542;51.700;8.846;2022-12-18T11:38:47;8.73;;;3.70;;
50585;SDS011;36542;51.700;8.846;2022-12-18T11:41:21;10.67;;;5.03;;
50585;SDS011;36542;51.700;8.846;2022-12-18T11:44:08;12.80;;;5.17;;
50585;SDS011;36542;51.700;8.846;2022-12-18T11:46:41;9.83;;;5.73;;
50585;SDS011;36542;51.700;8.846;2022-12-18T11:49:21;8.30;;;4.13;;
50585;SDS011;36542;51.700;8.846;2022-12-18T11:52:26;9.33;;;4.43;;
50585;SDS011;36542;51.700;8.846;2022-12-18T11:54:46;6.87;;;3.57;;
50585;SDS011;36542;51.700;8.846;2022-12-18T12:10:47;6.40;;;4.57;;
50585;SDS011;36542;51.700;8.846;2022-12-18T12:13:29;7.40;;;4.47;;
50585;SDS011;36542;51.700;8.846;2022-12-18T12:18:32;7.13;;;3.50;;
50585;SDS011;36542;51.700;8.846;2022-12-18T12:21:17;10.23;;;4.50;;
50585;SDS011;36542;51.700;8.846;2022-12-18T12:32:13;6.90;;;4.33;;
50585;SDS011;36542;51.700;8.846;2022-12-18T12:35:08;7.77;;;4.20;;
50585;SDS011;36542;51.700;8.846;2022-12-18T12:40:24;6.37;;;3.77;;
50585;SDS011;36542;51.700;8.846;2022-12-18T12:42:54;6.10;;;3.47;;
50585;SDS011;36542;51.700;8.846;2022-12-18T12:51:20;7.80;;;4.20;;
50585;SDS011;36542;51.700;8.846;2022-12-18T12:54:00;8.10;;;4.13;;
50585;SDS011;36542;51.700;8.846;2022-12-18T12:56:30;5.47;;;2.67;;
50585;SDS011;36542;51.700;8.846;2022-12-18T12:59:27;5.00;;;3.10;;
50585;SDS011;36542;51.700;8.846;2022-12-18T13:01:57;9.63;;;5.10;;
50585;SDS011;36542;51.700;8.846;2022-12-18T13:04:26;6.50;;;4.80;;
50585;SDS011;36542;51.700;8.846;2022-12-18T13:07:10;6.10;;;4.00;;
50585;SDS011;36542;51.700;8.846;2022-12-18T13:12:54;6.37;;;4.00;;
50585;SDS011;36542;51.700;8.846;2022-12-18T13:30:58;6.30;;;3.83;;
50585;SDS011;36542;51.700;8.846;2022-12-18T13:33:34;6.63;;;4.30;;
50585;SDS011;36542;51.700;8.846;2022-12-18T13:36:09;10.70;;;4.27;;
50585;SDS011;36542;51.700;8.846;2022-12-18T13:39:08;8.50;;;4.77;;
50585;SDS011;36542;51.700;8.846;2022-12-18T13:41:40;7.17;;;3.60;;
50585;SDS011;36542;51.700;8.846;2022-12-18T13:44:17;4.20;;;3.00;;
50585;SDS011;36542;51.700;8.846;2022-12-18T13:47:31;5.17;;;3.67;;
50585;SDS011;36542;51.700;8.846;2022-12-18T13:49:59;4.77;;;3.40;;
50585;SDS011;36542;51.700;8.846;2022-12-18T13:52:26;7.73;;;4.40;;
50585;SDS011;36542;51.700;8.846;2022-12-18T13:54:58;5.83;;;3.40;;
50585;SDS011;36542;51.700;8.846;2022-12-18T13:57:30;8.00;;;3.80;;
50585;SDS011;36542;51.700;8.846;2022-12-18T13:59:57;6.33;;;3.77;;
50585;SDS011;36542;51.700;8.846;2022-12-18T14:02:44;7.83;;;4.30;;
50585;SDS011;36542;51.700;8.846;2022-12-18T14:05:21;5.63;;;3.93;;
50585;SDS011;36542;51.700;8.846;2022-12-18T14:07:52;5.73;;;4.07;;
50585;SDS011;36542;51.700;8.846;2022-12-18T14:10:19;8.00;;;4.90;;
50585;SDS011;36542;51.700;8.846;2022-12-18T14:12:46;10.23;;;4.63;;
50585;SDS011;36542;51.700;8.846;2022-12-18T14:20:29;7.37;;;4.97;;
50585;SDS011;36542;51.700;8.846;2022-12-18T14:22:57;8.90;;;5.70;;
50585;SDS011;36542;51.700;8.846;2022-12-18T14:25:26;6.63;;;4.77;;
50585;SDS011;36542;51.700;8.846;2022-12-18T14:27:53;10.37;;;6.23;;
50585;SDS011;36542;51.700;8.846;2022-12-18T14:30:37;9.43;;;5.47;;
50585;SDS011;36542;51.700;8.846;2022-12-18T14:33:05;11.17;;;6.03;;
50585;SDS011;36542;51.700;8.846;2022-12-18T14:38:36;9.57;;;5.57;;
50585;SDS011;36542;51.700;8.846;2022-12-18T14:41:04;5.10;;;4.40;;
50585;SDS011;36542;51.700;8.846;2022-12-18T14:43:32;12.10;;;6.17;;
50585;SDS011;36542;51.700;8.846;2022-12-18T14:46:02;9.40;;;6.33;;
50585;SDS011;36542;51.700;8.846;2022-12-18T14:50:59;10.17;;;7.17;;
50585;SDS011;36542;51.700;8.846;2022-12-18T14:53:35;8.07;;;4.90;;
50585;SDS011;36542;51.700;8.846;2022-12-18T14:56:01;8.93;;;5.77;;
50585;SDS011;36542;51.700;8.846;2022-12-18T14:58:28;8.57;;;5.27;;
50585;SDS011;36542;51.700;8.846;2022-12-18T15:00:54;11.03;;;6.83;;
50585;SDS011;36542;51.700;8.846;2022-12-18T15:03:20;7.20;;;4.70;;
50585;SDS011;36542;51.700;8.846;2022-12-18T15:05:46;12.63;;;5.83;;
50585;SDS011;36542;51.700;8.846;2022-12-18T15:08:35;10.83;;;6.63;;
50585;SDS011;36542;51.700;8.846;2022-12-18T15:11:02;11.23;;;6.57;;
50585;SDS011;36542;51.700;8.846;2022-12-18T15:13:28;7.50;;;5.37;;
50585;SDS011;36542;51.700;8.846;2022-12-18T15:15:54;10.23;;;5.87;;
50585;SDS011;36542;51.700;8.846;2022-12-18T15:18:26;10.80;;;7.30;;
50585;SDS011;36542;51.700;8.846;2022-12-18T15:20:57;15.03;;;8.00;;
50585;SDS011;36542;51.700;8.846;2022-12-18T15:23:26;12.77;;;6.00;;
50585;SDS011;36542;51.700;8.846;2022-12-18T15:26:01;6.77;;;4.20;;
50585;SDS011;36542;51.700;8.846;2022-12-18T15:28:37;12.90;;;8.60;;
50585;SDS011;36542;51.700;8.846;2022-12-18T15:33:40;10.00;;;6.40;;
50585;SDS011;36542;51.700;8.846;2022-12-18T15:36:11;10.87;;;6.10;;
50585;SDS011;36542;51.700;8.846;2022-12-18T15:38:38;10.13;;;5.80;;
50585;SDS011;36542;51.700;8.846;2022-12-18T15:41:04;11.20;;;6.60;;
50585;SDS011;36542;51.700;8.846;2022-12-18T15:43:37;12.33;;;7.77;;
50585;SDS011;36542;51.700;8.846;2022-12-18T15:46:07;17.80;;;8.90;;
50585;SDS011;36542;51.700;8.846;2022-12-18T15:48:43;10.10;;;6.77;;
50585;SDS011;36542;51.700;8.846;2022-12-18T15:51:20;14.37;;;8.50;;
50585;SDS011;36542;51.700;8.846;2022-12-18T15:53:53;12.87;;;6.97;;
50585;SDS011;36542;51.700;8.846;2022-12-18T15:56:20;15.00;;;7.83;;
50585;SDS011;36542;51.700;8.846;2022-12-18T15:59:12;14.47;;;7.50;;
50585;SDS011;36542;51.700;8.846;2022-12-18T16:01:41;13.97;;;7.07;;
50585;SDS011;36542;51.700;8.846;2022-12-18T16:04:10;16.83;;;7.57;;
50585;SDS011;36542;51.700;8.846;2022-12-18T16:06:37;14.10;;;5.70;;
50585;SDS011;36542;51.700;8.846;2022-12-18T16:09:03;12.40;;;7.73;;
50585;SDS011;36542;51.700;8.846;2022-12-18T16:11:30;13.80;;;8.43;;
50585;SDS011;36542;51.700;8.846;2022-12-18T16:14:15;14.07;;;8.97;;
50585;SDS011;36542;51.700;8.846;2022-12-18T16:16:43;16.80;;;9.87;;
50585;SDS011;36542;51.700;8.846;2022-12-18T16:19:14;22.10;;;10.10;;
50585;SDS011;36542;51.700;8.846;2022-12-18T16:21:39;13.67;;;7.60;;
50585;SDS011;36542;51.700;8.846;2022-12-18T16:24:05;16.53;;;8.10;;
50585;SDS011;36542;51.700;8.846;2022-12-18T16:26:34;18.23;;;9.03;;
50585;SDS011;36542;51.700;8.846;2022-12-18T16:28:59;18.20;;;9.77;;
50585;SDS011;36542;51.700;8.846;2022-12-18T16:31:25;17.23;;;9.00;;
50585;SDS011;36542;51.700;8.846;2022-12-18T16:34:09;20.60;;;8.90;;
50585;SDS011;36542;51.700;8.846;2022-12-18T16:36:35;20.67;;;9.07;;
50585;SDS011;36542;51.700;8.846;2022-12-18T16:39:01;18.33;;;9.20;;
50585;SDS011;36542;51.700;8.846;2022-12-18T16:41:26;19.03;;;10.23;;
50585;SDS011;36542;51.700;8.846;2022-12-18T16:43:58;23.90;;;9.20;;
50585;SDS011;36542;51.700;8.846;2022-12-18T16:46:24;13.83;;;8.00;;
50585;SDS011;36542;51.700;8.846;2022-12-18T16:48:50;21.23;;;9.27;;
50585;SDS011;36542;51.700;8.846;2022-12-18T16:51:15;20.57;;;11.07;;
50585;SDS011;36542;51.700;8.846;2022-12-18T16:53:41;20.20;;;10.40;;
50585;SDS011;36542;51.700;8.846;2022-12-18T16:56:06;18.80;;;7.97;;
50585;SDS011;36542;51.700;8.846;2022-12-18T16:58:32;16.03;;;8.50;;
50585;SDS011;36542;51.700;8.846;2022-12-18T17:00:58;32.07;;;11.50;;
50585;SDS011;36542;51.700;8.846;2022-12-18T17:03:23;17.27;;;9.20;;
50585;SDS011;36542;51.700;8.846;2022-12-18T17:05:49;21.70;;;11.03;;